createdAt,value
2022-12-22T00:04:03.929Z,5.6
2022-12-22T00:09:12.096Z,5.6
2022-12-22T00:14:20.274Z,5.5
2022-12-22T00:19:28.462Z,5.6
2022-12-22T00:24:36.642Z,5.6
2022-12-22T00:29:44.858Z,5.6
2022-12-22T00:34:52.981Z,5.7
2022-12-22T00:40:01.157Z,5.8
2022-12-22T00:45:09.322Z,5.8
2022-12-22T00:50:17.493Z,5.9
2022-12-22T00:55:25.660Z,5.9
2022-12-22T01:00:33.839Z,5.9
2022-12-22T01:05:42.024Z,5.9
2022-12-22T01:10:50.193Z,5.8
2022-12-22T01:15:58.478Z,5.7
2022-12-22T01:21:06.545Z,5.7
2022-12-22T01:26:14.733Z,5.7
2022-12-22T01:31:22.888Z,5.7
2022-12-22T01:36:31.066Z,5.7
2022-12-22T01:41:39.307Z,5.7
2022-12-22T01:46:47.417Z,5.6
2022-12-22T01:51:55.577Z,5.6
2022-12-22T01:57:03.751Z,5.6
2022-12-22T02:02:11.942Z,5.6
2022-12-22T02:07:20.253Z,5.5
2022-12-22T02:12:28.436Z,5.5
2022-12-22T02:17:36.609Z,5.6
2022-12-22T02:22:44.817Z,5.7
2022-12-22T02:27:52.951Z,5.7
2022-12-22T02:33:01.130Z,5.8
2022-12-22T02:38:09.311Z,5.8
2022-12-22T02:43:17.469Z,5.8
2022-12-22T02:48:25.658Z,5.8
2022-12-22T02:53:33.857Z,5.8
2022-12-22T02:58:42.082Z,5.9
2022-12-22T03:03:50.174Z,5.9
2022-12-22T03:08:58.349Z,5.9
2022-12-22T03:14:06.531Z,5.9
2022-12-22T03:19:14.715Z,5.9
2022-12-22T03:24:22.864Z,5.9
2022-12-22T03:29:31.056Z,6
2022-12-22T03:34:39.302Z,6
2022-12-22T03:39:47.433Z,6.1
2022-12-22T03:44:55.676Z,6.2
2022-12-22T03:50:03.732Z,6.3
2022-12-22T03:55:11.905Z,6.3
2022-12-22T04:00:20.090Z,6.3
2022-12-22T04:05:28.260Z,6.4
2022-12-22T04:10:36.467Z,6.4
2022-12-22T04:15:44.618Z,6.3
2022-12-22T04:20:52.782Z,6.3
2022-12-22T04:26:00.945Z,6.3
2022-12-22T04:31:09.145Z,6.3
2022-12-22T04:36:17.376Z,6.3
2022-12-22T04:41:25.454Z,6.3
2022-12-22T04:46:33.674Z,6.2
2022-12-22T04:51:41.825Z,6.2
2022-12-22T04:56:49.987Z,6.3
2022-12-22T05:01:58.167Z,6.3
2022-12-22T05:07:06.357Z,6.3
2022-12-22T05:12:14.521Z,6.2
2022-12-22T05:17:22.685Z,6.2
2022-12-22T05:22:30.860Z,6.2
2022-12-22T05:27:39.031Z,6.1
2022-12-22T05:32:47.205Z,6
2022-12-22T05:37:55.385Z,6.1
2022-12-22T05:43:03.565Z,6.2
2022-12-22T05:48:11.720Z,6.4
2022-12-22T05:53:20.010Z,6.5
2022-12-22T05:58:28.105Z,6.6
2022-12-22T06:03:36.267Z,6.6
2022-12-22T06:08:44.489Z,6.7
2022-12-22T06:13:52.595Z,6.8
2022-12-22T06:19:00.772Z,6.8
2022-12-22T06:24:08.956Z,6.8
2022-12-22T06:29:17.115Z,6.8
2022-12-22T06:34:25.270Z,6.9
2022-12-22T06:39:33.464Z,6.8
2022-12-22T06:44:41.631Z,6.8
2022-12-22T06:49:49.819Z,6.8
2022-12-22T06:54:58.048Z,6.7
2022-12-22T07:00:06.203Z,6.8
2022-12-22T07:05:14.346Z,6.7
2022-12-22T07:10:22.542Z,6.7
2022-12-22T07:15:30.823Z,6.7
2022-12-22T07:20:38.912Z,6.7
2022-12-22T07:25:47.041Z,6.7
2022-12-22T07:30:55.188Z,6.7
2022-12-22T07:36:03.434Z,6.7
2022-12-22T07:41:11.552Z,6.7
2022-12-22T07:46:19.702Z,6.8
2022-12-22T07:51:27.900Z,6.8
2022-12-22T07:56:36.063Z,6.9
2022-12-22T08:01:44.246Z,6.9
2022-12-22T08:06:52.586Z,7
2022-12-22T08:12:00.721Z,7
2022-12-22T08:17:08.755Z,6.9
2022-12-22T08:22:16.944Z,6.9
2022-12-22T08:27:25.103Z,7
2022-12-22T08:32:33.391Z,7
2022-12-22T08:37:41.461Z,7
2022-12-22T08:42:49.644Z,7
2022-12-22T08:47:57.862Z,7.1
2022-12-22T08:53:05.964Z,7.1
2022-12-22T08:58:14.132Z,7.1
2022-12-22T09:03:22.307Z,7.2
2022-12-22T09:08:30.493Z,7.2
2022-12-22T09:13:38.706Z,7.2
2022-12-22T09:18:46.843Z,7.2
2022-12-22T09:23:55.017Z,7.2
2022-12-22T09:29:03.275Z,7.3
2022-12-22T09:34:11.345Z,7.4
2022-12-22T09:39:19.520Z,7.5
2022-12-22T09:44:27.760Z,7.6
2022-12-22T09:49:35.870Z,7.6
2022-12-22T09:54:44.035Z,7.6
2022-12-22T09:59:52.215Z,7.6
2022-12-22T10:05:00.392Z,7.5
2022-12-22T10:10:08.642Z,7.6
2022-12-22T10:15:16.733Z,7.5
2022-12-22T10:20:24.904Z,7.6
2022-12-22T10:25:33.084Z,7.6
2022-12-22T10:30:41.266Z,7.7
2022-12-22T10:35:49.603Z,7.7
2022-12-22T10:40:57.678Z,7.7
2022-12-22T10:46:05.762Z,7.8
2022-12-22T10:51:13.938Z,8
2022-12-22T10:56:22.128Z,8.1
2022-12-22T11:01:30.280Z,8.1
2022-12-22T11:06:38.449Z,8.2
2022-12-22T11:11:46.627Z,8.2
2022-12-22T11:16:54.807Z,8.3
2022-12-22T11:22:02.970Z,8.3
2022-12-22T11:27:11.147Z,8.3
2022-12-22T11:32:19.320Z,8.4
2022-12-22T11:37:27.505Z,8.4
2022-12-22T11:42:35.656Z,8.5
2022-12-22T11:47:43.836Z,8.5
2022-12-22T11:52:52.023Z,8.5
2022-12-22T11:58:00.197Z,8.6
2022-12-22T12:03:08.377Z,8.6
2022-12-22T12:08:16.524Z,8.5
2022-12-22T12:13:24.695Z,8.6
2022-12-22T12:18:32.869Z,8.6
2022-12-22T12:23:41.048Z,8.6
2022-12-22T12:28:49.207Z,8.7
2022-12-22T12:33:57.391Z,8.6
2022-12-22T12:39:05.565Z,8.6
2022-12-22T12:44:13.743Z,8.6
2022-12-22T12:49:21.919Z,8.6
2022-12-22T12:54:30.091Z,8.7
2022-12-22T12:59:38.251Z,8.6
2022-12-22T13:04:46.434Z,8.6
2022-12-22T13:09:54.600Z,8.6
2022-12-22T13:15:02.765Z,8.5
2022-12-22T13:20:10.930Z,8.4
2022-12-22T13:25:19.307Z,8.4
2022-12-22T13:30:27.367Z,8.4
2022-12-22T13:35:35.457Z,8.4
2022-12-22T13:40:43.813Z,8.4
2022-12-22T13:45:51.906Z,8.4
2022-12-22T13:51:00.070Z,8.4
2022-12-22T13:56:08.235Z,8.4
2022-12-22T14:01:16.486Z,8.4
2022-12-22T14:06:24.496Z,8.3
2022-12-22T14:11:32.771Z,8.3
2022-12-22T14:16:40.848Z,8.2
2022-12-22T14:21:49.061Z,8.2
2022-12-22T14:26:57.268Z,8.1
2022-12-22T14:32:05.401Z,8.1
2022-12-22T14:37:13.711Z,8.1
2022-12-22T14:42:21.716Z,8
2022-12-22T14:47:29.895Z,8
2022-12-22T14:52:38.054Z,7.9
2022-12-22T14:57:46.234Z,7.9
2022-12-22T15:02:54.415Z,7.8
2022-12-22T15:08:02.571Z,7.7
2022-12-22T15:13:10.758Z,7.7
2022-12-22T15:18:18.956Z,7.7
2022-12-22T15:23:27.131Z,7.7
2022-12-22T15:28:35.288Z,7.6
2022-12-22T15:33:43.457Z,7.5
2022-12-22T15:38:51.621Z,7.5
2022-12-22T15:43:59.850Z,7.5
2022-12-22T15:49:08.013Z,7.6
2022-12-22T15:54:16.172Z,7.6
2022-12-22T15:59:24.308Z,7.5
2022-12-22T16:04:32.571Z,7.5
2022-12-22T16:09:40.669Z,7.5
2022-12-22T16:14:48.842Z,7.5
2022-12-22T16:19:56.999Z,7.5
2022-12-22T16:25:05.184Z,7.4
2022-12-22T16:30:13.364Z,7.4
2022-12-22T16:35:21.618Z,7.5
2022-12-22T16:40:29.760Z,7.4
2022-12-22T16:50:46.083Z,7.3
2022-12-22T16:55:54.291Z,7.2
2022-12-22T17:01:02.444Z,7.2
2022-12-22T17:06:10.609Z,7.3
2022-12-22T17:11:18.865Z,7.3
2022-12-22T17:16:26.963Z,7.1
2022-12-22T17:21:35.166Z,7.1
2022-12-22T17:26:43.309Z,7
2022-12-22T17:31:51.501Z,6.9
2022-12-22T17:36:59.650Z,6.8
2022-12-22T17:42:07.823Z,6.6
2022-12-22T17:47:16.009Z,6.5
2022-12-22T17:52:24.214Z,6.5
2022-12-22T17:57:32.350Z,6.4
2022-12-22T18:02:40.525Z,6.3
2022-12-22T18:07:48.701Z,6.3
2022-12-22T18:12:56.942Z,6.2
2022-12-22T18:18:05.104Z,6.1
2022-12-22T18:23:13.217Z,6.1
2022-12-22T18:28:21.404Z,6.1
2022-12-22T18:33:29.586Z,6
2022-12-22T18:38:37.769Z,5.9
2022-12-22T18:43:45.908Z,5.9
2022-12-22T18:48:54.260Z,5.8
2022-12-22T18:54:02.268Z,5.7
2022-12-22T18:59:10.435Z,5.6
2022-12-22T19:04:18.606Z,5.5
2022-12-22T19:09:26.800Z,5.6
2022-12-22T19:14:34.952Z,5.6
2022-12-22T19:19:43.284Z,5.4
2022-12-22T19:24:51.525Z,5.5
2022-12-22T19:29:59.643Z,5.4
2022-12-22T19:35:07.806Z,5.3
2022-12-22T19:40:16.054Z,5.4
2022-12-22T19:45:24.233Z,5.4
2022-12-22T19:50:32.344Z,5.4
2022-12-22T19:55:40.610Z,5.3
2022-12-22T20:00:48.682Z,5.3
2022-12-22T20:05:56.872Z,5.3
2022-12-22T20:11:05.037Z,5.2
2022-12-22T20:16:13.216Z,5.1
2022-12-22T20:21:21.394Z,5.2
2022-12-22T20:26:29.548Z,5.1
2022-12-22T20:31:37.744Z,5.2
2022-12-22T20:36:45.971Z,5.1
2022-12-22T20:41:54.131Z,5
2022-12-22T20:47:02.299Z,4.9
2022-12-22T20:52:10.530Z,4.8
2022-12-22T20:57:18.612Z,4.8
2022-12-22T21:02:26.789Z,4.8
2022-12-22T21:07:34.960Z,4.8
2022-12-22T21:12:43.124Z,4.8
2022-12-22T21:17:51.302Z,4.7
2022-12-22T21:22:59.486Z,4.7
2022-12-22T21:28:07.657Z,4.6
2022-12-22T21:33:15.823Z,4.7
2022-12-22T21:38:23.993Z,4.8
2022-12-22T21:43:32.192Z,4.7
2022-12-22T21:48:40.367Z,4.6
2022-12-22T21:53:48.531Z,4.5
2022-12-22T21:58:56.714Z,4.5
2022-12-22T22:04:04.876Z,4.6
2022-12-22T22:09:13.045Z,4.6
2022-12-22T22:14:21.241Z,4.6
2022-12-22T22:19:29.470Z,4.5
2022-12-22T22:24:37.572Z,4.5
2022-12-22T22:29:45.751Z,4.5
2022-12-22T22:34:53.957Z,4.5
2022-12-22T22:40:02.099Z,4.6
2022-12-22T22:45:10.333Z,4.5
2022-12-22T22:50:18.467Z,4.7
2022-12-22T22:55:26.625Z,4.7
2022-12-22T23:00:34.800Z,4.7
2022-12-22T23:05:42.984Z,4.6
2022-12-22T23:10:51.150Z,4.7
2022-12-22T23:15:59.319Z,4.7
2022-12-22T23:21:07.500Z,4.6
2022-12-22T23:26:15.683Z,4.6
2022-12-22T23:31:23.846Z,4.5
2022-12-22T23:36:32.033Z,4.6
2022-12-22T23:41:40.203Z,4.6
2022-12-22T23:46:48.383Z,4.7
2022-12-22T23:51:56.532Z,4.7
2022-12-22T23:57:04.745Z,4.7
